createdAt,value
2023-03-22T00:00:00.771Z,1.33
2023-03-22T00:02:27.784Z,1.05
2023-03-22T00:04:55.065Z,1.15
2023-03-22T00:07:22.202Z,0.98
2023-03-22T00:09:49.196Z,0.73
2023-03-22T00:12:16.290Z,0.88
2023-03-22T00:14:43.278Z,0.75
2023-03-22T00:17:10.270Z,1.20
2023-03-22T00:19:37.504Z,0.77
2023-03-22T00:22:06.302Z,1.13
2023-03-22T00:24:33.373Z,0.85
2023-03-22T00:27:00.945Z,1.15
2023-03-22T00:29:28.083Z,0.93
2023-03-22T00:31:56.367Z,1.20
2023-03-22T00:34:23.767Z,1.00
2023-03-22T00:36:52.006Z,1.38
2023-03-22T00:39:19.192Z,1.30
2023-03-22T00:41:46.270Z,1.00
2023-03-22T00:44:13.225Z,0.82
2023-03-22T00:46:40.244Z,1.15
2023-03-22T00:49:07.295Z,1.02
2023-03-22T00:51:34.414Z,1.17
2023-03-22T00:54:01.600Z,1.38
2023-03-22T00:56:29.100Z,1.00
2023-03-22T00:58:56.383Z,1.08
2023-03-22T01:01:23.433Z,1.15
2023-03-22T01:03:50.927Z,1.17
2023-03-22T01:06:18.262Z,1.42
2023-03-22T01:08:45.283Z,1.35
2023-03-22T01:11:12.708Z,1.52
2023-03-22T01:13:41.659Z,1.20
2023-03-22T01:16:10.535Z,1.08
2023-03-22T01:18:38.059Z,1.60
2023-03-22T01:21:06.011Z,1.67
2023-03-22T01:23:33.888Z,1.52
2023-03-22T01:26:01.669Z,1.42
2023-03-22T01:28:29.719Z,2.15
2023-03-22T01:31:00.540Z,2.08
2023-03-22T01:33:31.079Z,1.40
2023-03-22T01:35:58.218Z,2.03
2023-03-22T01:38:25.288Z,2.10
2023-03-22T01:40:52.253Z,2.33
2023-03-22T01:43:19.602Z,2.85
2023-03-22T01:45:51.608Z,2.80
2023-03-22T01:48:34.179Z,2.30
2023-03-22T01:51:18.872Z,2.45
2023-03-22T01:53:51.746Z,2.75
2023-03-22T01:58:49.779Z,1.00
2023-03-22T02:01:17.467Z,2.22
2023-03-22T02:03:58.798Z,1.73
2023-03-22T02:06:29.926Z,3.08
2023-03-22T02:08:58.458Z,2.58
2023-03-22T02:11:39.152Z,3.42
2023-03-22T02:14:49.003Z,1.83
2023-03-22T02:17:27.708Z,1.25
2023-03-22T02:20:06.930Z,3.72
2023-03-22T02:22:45.421Z,1.73
2023-03-22T02:25:55.307Z,2.60
2023-03-22T02:28:36.882Z,1.60
2023-03-22T02:31:43.600Z,2.75
2023-03-22T02:34:37.995Z,2.78
2023-03-22T02:37:07.811Z,3.30
2023-03-22T02:40:15.472Z,2.63
2023-03-22T02:43:06.388Z,1.63
2023-03-22T02:45:51.802Z,2.35
2023-03-22T02:48:39.534Z,1.10
2023-03-22T02:51:18.070Z,2.20
2023-03-22T02:54:10.919Z,0.77
2023-03-22T02:56:47.361Z,2.47
2023-03-22T02:59:17.436Z,2.60
2023-03-22T03:02:04.846Z,3.20
2023-03-22T03:04:37.937Z,2.05
2023-03-22T03:07:09.603Z,2.58
2023-03-22T03:09:40.039Z,2.85
2023-03-22T03:12:25.034Z,0.93
2023-03-22T03:14:52.622Z,1.05
2023-03-22T03:17:44.029Z,2.08
2023-03-22T03:20:38.682Z,2.00
2023-03-22T03:23:33.707Z,1.33
2023-03-22T03:26:31.512Z,2.58
2023-03-22T03:29:14.196Z,1.15
2023-03-22T03:32:15.506Z,1.70
2023-03-22T03:35:06.659Z,0.95
2023-03-22T03:37:47.862Z,2.25
2023-03-22T03:40:32.542Z,2.35
2023-03-22T03:43:06.291Z,2.00
2023-03-22T03:45:35.832Z,2.80
2023-03-22T03:48:10.901Z,2.20
2023-03-22T03:50:38.297Z,1.02
2023-03-22T03:53:05.827Z,2.22
2023-03-22T03:55:33.513Z,1.88
2023-03-22T03:58:00.533Z,0.90
2023-03-22T04:00:27.679Z,1.35
2023-03-22T04:02:54.663Z,1.67
2023-03-22T04:05:22.204Z,1.95
2023-03-22T04:07:49.173Z,1.65
2023-03-22T04:10:16.196Z,1.33
2023-03-22T04:12:43.156Z,0.85
2023-03-22T04:15:12.220Z,0.77
2023-03-22T04:17:40.280Z,2.05
2023-03-22T04:20:11.094Z,0.55
2023-03-22T04:22:39.336Z,1.08
2023-03-22T04:25:12.858Z,1.42
2023-03-22T04:27:41.398Z,1.88
2023-03-22T04:30:12.621Z,1.58
2023-03-22T04:32:39.928Z,0.17
2023-03-22T04:35:07.178Z,1.30
2023-03-22T04:37:34.193Z,1.35
2023-03-22T04:40:01.260Z,0.95
2023-03-22T04:42:28.306Z,0.95
2023-03-22T04:44:55.249Z,1.70
2023-03-22T04:47:22.230Z,0.57
2023-03-22T04:49:49.194Z,1.55
2023-03-22T04:52:16.155Z,1.15
2023-03-22T04:54:43.174Z,0.75
2023-03-22T04:57:10.184Z,1.15
2023-03-22T04:59:37.393Z,0.95
2023-03-22T05:02:05.313Z,0.95
2023-03-22T05:04:32.912Z,1.33
2023-03-22T05:07:00.050Z,1.02
2023-03-22T05:09:27.132Z,1.10
2023-03-22T05:11:54.131Z,0.98
2023-03-22T05:14:21.189Z,1.20
2023-03-22T05:16:48.167Z,1.35
2023-03-22T05:19:15.149Z,1.48
2023-03-22T05:21:44.168Z,1.45
2023-03-22T05:24:12.074Z,1.17
2023-03-22T05:26:43.734Z,1.00
2023-03-22T05:29:11.431Z,0.80
2023-03-22T05:31:40.459Z,1.70
2023-03-22T05:34:08.252Z,0.90
2023-03-22T05:36:36.627Z,0.95
2023-03-22T05:39:04.360Z,0.38
2023-03-22T05:41:36.218Z,0.50
2023-03-22T05:44:04.394Z,1.02
2023-03-22T05:46:31.813Z,0.88
2023-03-22T05:48:59.142Z,0.20
2023-03-22T05:51:27.430Z,1.40
2023-03-22T05:53:54.523Z,0.57
2023-03-22T05:56:25.819Z,0.38
2023-03-22T05:58:52.914Z,0.80
2023-03-22T06:01:21.508Z,0.82
2023-03-22T06:03:49.356Z,0.63
2023-03-22T06:06:16.568Z,0.93
2023-03-22T06:08:43.905Z,0.73
2023-03-22T06:11:11.281Z,0.73
2023-03-22T06:13:38.501Z,0.90
2023-03-22T06:16:06.476Z,0.90
2023-03-22T06:18:33.697Z,0.40
2023-03-22T06:21:01.018Z,0.43
2023-03-22T06:23:28.451Z,0.77
2023-03-22T06:25:55.647Z,0.95
2023-03-22T06:28:22.785Z,0.93
2023-03-22T06:30:50.015Z,0.32
2023-03-22T06:33:17.130Z,0.82
2023-03-22T06:35:44.393Z,0.47
2023-03-22T06:38:11.531Z,0.40
2023-03-22T06:40:38.952Z,0.80
2023-03-22T06:43:07.331Z,0.52
2023-03-22T06:45:35.973Z,1.27
2023-03-22T06:48:03.133Z,0.63
2023-03-22T06:50:30.341Z,0.25
2023-03-22T06:52:57.334Z,0.20
2023-03-22T06:55:24.459Z,0.32
2023-03-22T06:57:51.606Z,0.68
2023-03-22T07:00:19.029Z,0.28
2023-03-22T07:02:46.125Z,0.52
2023-03-22T07:05:13.235Z,0.60
2023-03-22T07:07:40.409Z,0.40
2023-03-22T07:10:08.182Z,0.28
2023-03-22T07:12:35.790Z,0.75
2023-03-22T07:15:04.936Z,0.52
2023-03-22T07:17:31.890Z,0.38
2023-03-22T07:19:59.037Z,0.30
2023-03-22T07:22:27.320Z,0.40
2023-03-22T07:24:58.272Z,0.73
2023-03-22T07:27:26.478Z,0.60
2023-03-22T07:29:54.191Z,0.40
2023-03-22T07:32:21.389Z,0.30
2023-03-22T07:34:48.409Z,0.30
2023-03-22T07:37:15.401Z,0.65
2023-03-22T07:39:42.366Z,0.63
2023-03-22T07:42:09.634Z,0.88
2023-03-22T07:44:36.731Z,0.73
2023-03-22T07:47:04.078Z,0.80
2023-03-22T07:49:31.657Z,0.55
2023-03-22T07:51:59.021Z,0.40
2023-03-22T07:54:33.310Z,0.93
2023-03-22T07:57:01.864Z,0.88
2023-03-22T07:59:29.436Z,0.75
2023-03-22T08:01:56.581Z,0.40
2023-03-22T08:04:23.745Z,0.47
2023-03-22T08:06:51.444Z,0.65
2023-03-22T08:09:18.619Z,0.88
2023-03-22T08:11:45.779Z,0.40
2023-03-22T08:14:12.994Z,0.30
2023-03-22T08:16:41.653Z,0.75
2023-03-22T08:19:08.770Z,0.55
2023-03-22T08:21:36.281Z,0.60
2023-03-22T08:24:04.831Z,0.70
2023-03-22T08:26:31.846Z,0.68
2023-03-22T08:28:59.749Z,0.38
2023-03-22T08:31:26.780Z,0.63
2023-03-22T08:33:53.809Z,0.20
2023-03-22T08:36:25.638Z,0.60
2023-03-22T08:38:53.063Z,0.60
2023-03-22T08:41:20.101Z,0.40
2023-03-22T08:43:47.182Z,0.30
2023-03-22T08:46:14.232Z,0.50
2023-03-22T08:48:41.665Z,0.80
2023-03-22T08:51:08.981Z,1.10
2023-03-22T08:53:36.027Z,0.63
2023-03-22T08:56:03.918Z,0.52
2023-03-22T08:58:30.970Z,0.50
2023-03-22T09:00:58.479Z,0.70
2023-03-22T09:03:25.795Z,0.75
2023-03-22T09:05:52.924Z,0.43
2023-03-22T09:08:20.292Z,0.30
2023-03-22T09:10:51.540Z,0.65
2023-03-22T09:13:19.616Z,0.40
2023-03-22T09:15:47.501Z,0.40
2023-03-22T09:18:15.373Z,0.77
2023-03-22T09:20:43.805Z,0.80
2023-03-22T09:23:10.886Z,0.95
2023-03-22T09:25:38.187Z,0.38
2023-03-22T09:28:06.020Z,0.40
2023-03-22T09:30:33.048Z,0.60
2023-03-22T09:32:59.997Z,0.20
2023-03-22T09:35:27.040Z,0.45
2023-03-22T09:37:54.802Z,0.30
2023-03-22T09:40:30.712Z,0.90
2023-03-22T09:43:07.931Z,0.63
2023-03-22T09:45:43.732Z,0.70
2023-03-22T09:48:33.952Z,0.32
2023-03-22T09:51:03.463Z,0.47
2023-03-22T09:53:32.894Z,0.43
2023-03-22T09:56:14.688Z,0.52
2023-03-22T09:58:49.279Z,0.50
2023-03-22T10:01:29.138Z,0.45
2023-03-22T10:04:10.720Z,0.30
2023-03-22T10:06:37.840Z,0.40
2023-03-22T10:09:14.921Z,0.30
2023-03-22T10:11:48.973Z,0.50
2023-03-22T10:15:06.479Z,0.70
2023-03-22T10:17:35.509Z,0.30
2023-03-22T10:20:12.335Z,0.50
2023-03-22T10:22:43.941Z,0.35
2023-03-22T10:25:19.440Z,0.40
2023-03-22T10:27:49.545Z,0.30
2023-03-22T10:30:39.833Z,0.40
2023-03-22T10:33:18.944Z,0.35
2023-03-22T10:35:46.511Z,0.30
2023-03-22T10:38:22.759Z,0.75
2023-03-22T10:40:51.011Z,0.85
2023-03-22T10:43:26.170Z,0.45
2023-03-22T10:45:55.719Z,0.30
2023-03-22T10:48:33.156Z,0.85
2023-03-22T10:51:02.300Z,0.55
2023-03-22T10:53:40.820Z,0.20
2023-03-22T10:56:16.771Z,0.60
2023-03-22T10:58:43.901Z,0.40
2023-03-22T11:01:31.557Z,0.47
2023-03-22T11:04:17.621Z,0.30
2023-03-22T11:06:55.658Z,0.43
2023-03-22T11:09:24.769Z,0.38
2023-03-22T11:11:56.417Z,0.20
2023-03-22T11:14:32.140Z,0.30
2023-03-22T11:17:08.589Z,0.30
2023-03-22T11:19:41.491Z,0.30
2023-03-22T11:24:55.425Z,0.50
2023-03-22T11:27:32.973Z,0.38
2023-03-22T11:30:23.143Z,0.65
2023-03-22T11:33:00.979Z,0.47
2023-03-22T11:35:31.119Z,0.30
2023-03-22T11:37:59.216Z,0.28
2023-03-22T11:40:31.557Z,0.30
2023-03-22T11:43:19.405Z,0.60
2023-03-22T11:45:49.288Z,0.20
2023-03-22T11:48:21.930Z,0.43
2023-03-22T11:50:53.028Z,0.40
2023-03-22T11:53:24.705Z,0.52
2023-03-22T11:55:57.365Z,0.45
2023-03-22T11:58:37.392Z,0.45
2023-03-22T12:01:06.047Z,0.40
2023-03-22T12:03:42.274Z,0.30
2023-03-22T12:06:20.104Z,0.32
2023-03-22T12:08:57.713Z,0.40
2023-03-22T12:11:43.744Z,0.57
2023-03-22T12:14:16.607Z,0.57
2023-03-22T12:17:09.801Z,0.43
2023-03-22T12:19:58.649Z,0.65
2023-03-22T12:22:51.872Z,0.30
2023-03-22T12:25:29.002Z,0.28
2023-03-22T12:28:09.317Z,0.68
2023-03-22T12:30:53.290Z,0.52
2023-03-22T12:33:31.242Z,0.55
2023-03-22T12:36:04.932Z,0.10
2023-03-22T12:38:46.346Z,0.40
2023-03-22T12:41:27.918Z,0.30
2023-03-22T12:44:00.522Z,0.40
2023-03-22T12:46:35.552Z,0.55
2023-03-22T12:49:21.543Z,0.52
2023-03-22T12:51:51.932Z,0.60
2023-03-22T12:54:25.412Z,0.50
2023-03-22T12:56:54.797Z,0.17
2023-03-22T12:59:29.076Z,0.43
2023-03-22T13:02:14.335Z,0.35
2023-03-22T13:04:44.175Z,0.47
2023-03-22T13:07:31.685Z,0.47
2023-03-22T13:10:00.774Z,0.40
2023-03-22T13:12:31.913Z,0.30
2023-03-22T13:15:25.850Z,0.35
2023-03-22T13:17:57.626Z,0.40
2023-03-22T13:20:27.971Z,0.40
2023-03-22T13:22:54.846Z,0.20
2023-03-22T13:25:38.284Z,0.73
2023-03-22T13:28:28.546Z,0.32
2023-03-22T13:30:58.841Z,0.45
2023-03-22T13:33:32.758Z,0.45
2023-03-22T13:36:07.020Z,0.28
2023-03-22T13:38:43.037Z,0.30
2023-03-22T13:41:36.105Z,0.30
2023-03-22T13:44:25.502Z,0.28
2023-03-22T13:46:57.550Z,0.28
2023-03-22T13:49:50.563Z,0.50
2023-03-22T13:52:38.579Z,0.60
2023-03-22T13:55:36.411Z,0.85
2023-03-22T13:58:05.973Z,0.32
2023-03-22T14:00:36.224Z,0.40
2023-03-22T14:03:22.981Z,0.40
2023-03-22T14:06:10.877Z,0.47
2023-03-22T14:08:40.672Z,0.65
2023-03-22T14:11:28.758Z,0.90
2023-03-22T14:14:04.719Z,0.57
2023-03-22T14:16:48.843Z,0.40
2023-03-22T14:19:29.927Z,0.40
